Latest Weather Observations for Canterbury

IDN60901

Issued at 9:51 pm EST Tuesday 24 May 2016 (issued every 10 minutes, with the page automatically refreshed every 10 minutes)

About weather observations | Map of Sydney area stations | Latest observations for Sydney area | Other Formats
Station Details ID: 066194 Name: CANTERBURY RACECOURSE AWS Lat: -33.91 Lon: 151.11 Height: 3.0 m
Data from the previous 72 hours. | See also: Recent months at Canterbury
Date/Time
EST
Tmp

°C
App
Tmp
°C
Dew
Point
°C
Rel
Hum
%
Delta-T

°C
Wind Press
QNH
hPa
Press
MSL
hPa
Rain
since
9 am
mm
Dir
 
Spd
km/h
Gust
km/h
Spd
kts
Gust
kts
24/09:30pm 13.8 10.3 3.6 50 4.6 W 11 15 6 8 - - 0.0
24/09:00pm 14.2 10.3 3.4 48 4.9 W 13 20 7 11 - - 0.0
24/08:30pm 15.1 10.8 3.3 45 5.3 WSW 15 24 8 13 - - 0.0
24/08:00pm 15.2 10.8 2.7 43 5.6 WSW 15 28 8 15 - - 0.0
24/07:30pm 15.5 12.1 2.0 40 6.0 WSW 9 17 5 9 - - 0.0
24/07:00pm 16.1 11.9 1.8 38 6.3 W 13 22 7 12 - - 0.0
24/06:30pm 16.5 11.9 1.4 36 6.7 W 15 22 8 12 - - 0.0
24/06:00pm 16.9 12.3 1.4 35 6.9 W 15 24 8 13 - - 0.0
24/05:30pm 17.6 12.9 0.7 32 7.4 W 15 24 8 13 - - 0.0
24/05:00pm 18.0 14.0 0.2 30 7.8 W 11 24 6 13 - - 0.0
24/04:30pm 19.3 14.1 -0.1 27 8.5 WSW 17 32 9 17 - - 0.0
24/04:00pm 20.0 13.3 -1.2 24 9.1 WSW 24 37 13 20 - - 0.0
24/03:30pm 20.9 15.6 -0.4 24 9.4 WSW 17 28 9 15 - - 0.0
24/03:00pm 20.9 15.1 -0.4 24 9.4 WSW 20 37 11 20 - - 0.0
24/02:30pm 21.1 15.1 -1.4 22 9.8 WSW 20 32 11 17 - - 0.0
24/02:00pm 20.8 14.8 -1.7 22 9.7 WSW 20 35 11 19 - - 0.0
24/01:30pm 20.5 15.6 -0.2 25 9.1 WSW 15 32 8 17 - - 0.0
24/01:00pm 20.1 14.6 0.5 27 8.7 WSW 19 28 10 15 - - 0.0
24/12:30pm 19.3 13.6 0.8 29 8.2 W 20 28 11 15 - - 0.0
24/12:00pm 18.7 12.8 1.7 32 7.7 WSW 22 37 12 20 - - 0.0
24/11:30am 18.3 13.1 2.6 35 7.2 W 19 28 10 15 - - 0.0
24/11:00am 17.5 12.3 2.3 36 6.9 WSW 19 33 10 18 - - 0.0
24/10:30am 16.5 11.9 3.6 42 6.0 WSW 17 24 9 13 - - 0.0
24/10:00am 15.2 10.2 3.7 46 5.3 W 19 32 10 17 - - 0.0
24/09:30am 14.4 10.6 4.1 50 4.7 WNW 13 22 7 12 - - 0.0
24/09:00am 13.5 10.0 3.3 50 4.6 WNW 11 15 6 8 - - 0.0
24/08:30am 12.3 9.6 3.5 55 3.9 NW 7 17 4 9 - - 0.0
24/08:00am 11.5 7.9 3.0 56 3.7 WNW 11 15 6 8 - - 0.0
24/07:30am 9.9 7.0 2.5 60 3.1 W 7 15 4 8 - - 0.0
24/07:00am 9.2 7.2 2.3 62 2.9 WNW 2 7 1 4 - - 0.0
24/06:30am 9.0 6.1 2.6 64 2.7 WNW 7 13 4 7 - - 0.0
24/06:00am 10.2 6.9 2.6 59 3.2 WNW 9 17 5 9 - - 0.0
24/05:30am 11.1 7.5 2.9 57 3.6 W 11 15 6 8 - - 0.0
24/05:00am 11.5 8.3 2.8 55 3.8 W 9 13 5 7 - - 0.0
24/04:30am 12.0 8.7 2.7 53 4.1 W 9 15 5 8 - - 0.0
24/04:00am 11.9 8.6 2.6 53 4.0 W 9 17 5 9 - - 0.0
24/03:30am 11.9 7.9 2.6 53 4.0 WSW 13 20 7 11 - - 0.0
24/03:00am 12.1 8.0 2.3 51 4.2 WSW 13 22 7 12 - - 0.0
24/02:30am 12.9 7.6 1.9 47 4.7 WSW 19 30 10 16 - - 0.0
24/02:00am 12.6 6.7 1.9 48 4.6 W 22 33 12 18 - - 0.0
24/01:30am 12.5 7.2 1.8 48 4.6 W 19 24 10 13 - - 0.0
24/01:00am 13.2 7.9 1.8 46 4.9 WSW 19 26 10 14 - - 0.0
24/12:30am 13.2 9.4 1.8 46 4.9 WSW 11 19 6 10 - - 0.0
24/12:00am 13.7 8.8 1.7 44 5.2 WNW 17 24 9 13 - - 0.0
 
Date/Time
EST
Tmp

°C
App
Tmp
°C
Dew
Point
°C
Rel
Hum
%
Delta-T

°C
Wind Press
QNH
hPa
Press
MSL
hPa
Rain
since
9 am
mm
Dir
 
Spd
km/h
Gust
km/h
Spd
kts
Gust
kts
23/11:30pm 13.7 9.5 1.7 44 5.2 W 13 19 7 10 - - 0.0
23/11:00pm 14.1 10.2 1.4 42 5.5 W 11 24 6 13 - - 0.0
23/10:30pm 14.6 9.6 1.5 41 5.7 W 17 26 9 14 - - 0.0
23/10:00pm 14.8 9.4 1.3 40 5.8 W 19 32 10 17 - - 0.0
23/09:30pm 15.0 10.0 1.5 40 5.9 W 17 26 9 14 - - 0.0
23/09:00pm 15.5 10.5 1.3 38 6.2 WSW 17 30 9 16 - - 0.0
23/08:30pm 15.5 10.8 0.9 37 6.3 WSW 15 24 8 13 - - 0.0
23/08:00pm 16.2 10.7 0.7 35 6.7 WSW 19 28 10 15 - - 0.0
23/07:30pm 16.4 12.0 0.1 33 7.0 W 13 24 7 13 - - 0.0
23/07:00pm 17.2 11.6 -0.1 31 7.4 WSW 19 32 10 17 - - 0.0
23/06:30pm 17.5 12.6 -0.2 30 7.6 WSW 15 22 8 12 - - 0.0
23/06:00pm 17.8 12.5 -0.9 28 7.9 WSW 17 26 9 14 - - 0.0
23/05:30pm 18.5 13.1 -1.3 26 8.4 W 17 24 9 13 - - 0.0
23/05:00pm 19.6 13.5 -2.1 23 9.1 WSW 20 35 11 19 - - 0.0
23/04:30pm 20.8 13.5 -3.0 20 10.0 W 26 37 14 20 - - 0.0
23/04:00pm 21.7 15.4 -0.9 22 9.9 WSW 22 35 12 19 - - 0.0
23/03:30pm 22.3 15.3 -0.4 22 10.1 WSW 26 37 14 20 - - 0.0
23/03:00pm 22.8 16.2 1.8 25 9.8 SW 26 43 14 23 - - 0.0
23/02:30pm 22.6 17.7 8.3 40 7.5 SW 24 35 13 19 - - 0.0
23/02:00pm 23.6 20.2 10.6 44 7.2 WSW 19 30 10 16 - - 0.0
23/01:30pm 23.1 18.6 10.2 44 7.1 WSW 24 39 13 21 - - 0.0
23/01:00pm 24.4 19.1 9.9 40 8.0 WSW 28 41 15 22 - - 0.0
23/12:36pm 26.1 20.4 9.9 36 9.0 W 30 48 16 26 - - 0.0
23/12:30pm 26.1 19.7 9.5 35 9.1 W 33 48 18 26 - - 0.0
23/12:17pm 27.1 21.8 9.9 34 9.6 W 28 46 15 25 - - 0.0
23/12:00pm 26.6 22.1 9.9 35 9.3 W 24 43 13 23 - - 0.0
23/11:30am 26.1 22.7 10.7 38 8.6 W 19 30 10 16 - - 0.0
23/11:15am 26.1 20.4 9.9 36 9.0 NW 30 48 16 26 - - 0.0
23/11:14am 26.1 20.0 9.9 36 9.0 NNW 32 48 17 26 - - 0.0
23/11:00am 26.3 24.0 11.6 40 8.4 NW 15 24 8 13 - - 0.0
23/10:30am 25.8 23.5 11.6 41 8.1 NW 15 22 8 12 - - 0.0
23/10:00am 24.3 21.5 12.6 48 6.7 NNW 19 30 10 16 - - 0.0
23/09:46am 22.8 23.2 13.8 57 5.2 ESE 4 20 2 11 - - 0.0
23/09:30am 17.6 19.2 14.9 84 1.6 CALM 0 0 0 0 - - 0.0
23/09:00am 15.2 16.5 14.2 94 0.6 CALM 0 0 0 0 - - 0.0
23/08:30am 15.3 17.0 15.3 100 0.0 CALM 0 0 0 0 - - 0.0
23/08:15am 14.7 16.2 14.7 100 0.0 CALM 0 0 0 0 - - 0.0
23/08:00am 13.9 15.1 13.9 100 0.0 CALM 0 0 0 0 - - 0.0
23/07:30am 11.1 11.4 10.9 99 0.1 CALM 0 0 0 0 - - 0.0
23/07:00am 9.7 9.6 9.6 99 0.0 CALM 0 0 0 0 - - 0.0
23/06:30am 9.9 9.5 9.8 99 0.1 N 2 6 1 3 - - 0.0
23/06:00am 10.1 9.8 10.0 99 0.1 NNW 2 9 1 5 - - 0.0
23/05:30am 10.8 11.0 10.6 99 0.1 CALM 0 0 0 0 - - 0.0
23/05:00am 10.3 10.4 10.0 98 0.2 CALM 0 0 0 0 - - 0.0
23/04:30am 10.6 10.7 10.3 98 0.2 CALM 0 0 0 0 - - 0.0
23/04:00am 11.3 11.7 11.1 99 0.1 CALM 0 0 0 0 - - 0.0
23/03:30am 11.1 11.4 10.9 99 0.1 CALM 0 0 0 0 - - 0.0
23/03:00am 11.3 11.7 11.1 99 0.1 CALM 0 0 0 0 - - 0.0
23/02:30am 11.6 12.0 11.4 99 0.1 CALM 0 0 0 0 - - 0.0
23/02:00am 11.6 12.0 11.3 98 0.2 CALM 0 0 0 0 - - 0.0
23/01:30am 11.6 12.0 11.1 97 0.3 CALM 0 0 0 0 - - 0.0
23/01:00am 11.8 12.3 11.5 98 0.2 CALM 0 0 0 0 - - 0.0
23/12:30am 12.3 12.9 11.8 97 0.3 CALM 0 0 0 0 - - 0.0
23/12:00am 12.7 13.4 12.2 97 0.3 CALM 0 0 0 0 - - 0.0
 
Date/Time
EST
Tmp

°C
App
Tmp
°C
Dew
Point
°C
Rel
Hum
%
Delta-T

°C
Wind Press
QNH
hPa
Press
MSL
hPa
Rain
since
9 am
mm
Dir
 
Spd
km/h
Gust
km/h
Spd
kts
Gust
kts
22/11:30pm 12.4 12.9 11.5 94 0.5 CALM 0 0 0 0 - - 0.0
22/11:00pm 13.1 13.9 12.5 96 0.3 CALM 0 0 0 0 - - 0.0
22/10:36pm 13.1 13.8 12.3 95 0.4 CALM 0 0 0 0 - - 0.0
22/10:30pm 13.1 13.8 12.2 94 0.5 CALM 0 0 0 0 - - 0.0
22/10:19pm 13.4 14.3 12.8 96 0.3 CALM 0 0 0 0 - - 0.0
22/10:00pm 13.6 14.5 13.0 96 0.3 CALM 0 0 0 0 - - 0.0
22/09:36pm 13.7 14.6 12.8 94 0.5 CALM 0 0 0 0 - - 0.0
22/09:30pm 13.9 14.8 12.8 93 0.6 CALM 0 0 0 0 - - 0.0
22/09:00pm 14.0 14.8 12.7 92 0.7 CALM 0 0 0 0 - - 0.0
22/08:30pm 14.4 15.3 13.0 91 0.8 CALM 0 0 0 0 - - 0.0
22/08:00pm 15.2 15.2 13.7 91 0.8 WNW 6 9 3 5 - - 0.0
22/07:30pm 15.3 16.2 13.0 86 1.3 CALM 0 0 0 0 - - 0.0
22/07:00pm 15.8 16.8 13.1 84 1.5 CALM 0 0 0 0 - - 0.0
22/06:30pm 17.7 17.8 13.8 78 2.2 NNE 6 9 3 5 - - 0.0
22/06:00pm 18.6 18.8 14.1 75 2.6 NE 6 9 3 5 - - 0.0
22/05:30pm 19.5 19.6 14.5 73 2.9 NE 7 13 4 7 - - 0.0
22/05:00pm 20.2 19.9 14.3 69 3.4 NE 9 15 5 8 - - 0.0
22/04:30pm 21.1 20.8 14.3 65 4.0 ENE 9 15 5 8 - - 0.0
22/04:00pm 22.5 21.8 14.4 60 4.8 NE 11 22 6 12 - - 0.0
22/03:30pm 22.8 22.2 14.6 60 4.8 ENE 11 17 6 9 - - 0.0
22/03:00pm 23.3 22.7 14.6 58 5.1 ENE 11 15 6 8 - - 0.0
22/02:30pm 23.6 23.4 14.6 57 5.3 NE 9 15 5 8 - - 0.0
22/02:00pm 23.6 23.4 13.5 53 5.9 NE 7 15 4 8 - - 0.0
22/01:30pm 23.4 23.1 13.3 53 5.8 ENE 7 11 4 6 - - 0.0
22/01:00pm 23.6 23.5 13.8 54 5.7 N 7 11 4 6 - - 0.0
22/12:30pm 23.5 23.9 13.7 54 5.7 N 4 11 2 6 - - 0.0
22/12:00pm 21.4 22.3 12.8 58 4.9 CALM 0 7 0 4 - - 0.0
22/11:30am 21.5 21.7 13.2 59 4.8 NW 4 9 2 5 - - 0.0
22/11:00am 20.5 20.2 13.2 63 4.2 NW 7 11 4 6 - - 0.0
22/10:38am 19.6 19.1 13.8 69 3.3 NW 9 15 5 8 - - 0.0
22/10:30am 19.3 18.6 13.3 68 3.4 WNW 9 13 5 7 - - 0.0
22/10:00am 18.5 18.4 13.4 72 2.9 W 6 9 3 5 - - 0.0
22/09:33am 17.4 16.7 13.1 76 2.4 WNW 9 13 5 7 - - 0.0
22/09:30am 17.3 16.6 13.2 77 2.3 NW 9 13 5 7 - - 0.0
22/09:26am 17.1 16.8 13.2 78 2.2 NW 7 13 4 7 - - 0.0
22/09:00am 15.8 14.9 12.7 82 1.7 WNW 9 17 5 9 - - 0.0
22/08:30am 14.7 14.0 13.1 90 0.9 NW 9 13 5 7 - - 0.0
22/08:00am 13.6 14.3 13.4 99 0.1 NNW 2 7 1 4 - - 0.0
22/07:30am 11.8 12.3 11.6 99 0.1 CALM 0 0 0 0 - - 0.0
22/07:00am 11.4 11.8 11.1 98 0.2 CALM 0 0 0 0 - - 0.0
22/06:30am 11.4 11.7 10.9 97 0.3 CALM 0 0 0 0 - - 0.0
22/06:21am 11.4 11.7 10.9 97 0.3 CALM 0 0 0 0 - - 0.0
22/06:15am 11.0 11.2 10.4 96 0.3 CALM 0 0 0 0 - - 0.0
22/06:00am 11.1 11.3 10.6 97 0.3 CALM 0 0 0 0 - - 0.0
22/05:52am 11.8 12.3 11.5 98 0.2 CALM 0 2 0 1 - - 0.0
22/05:35am 11.9 12.0 11.6 98 0.2 NNW 2 7 1 4 - - 0.0
22/05:30am 11.6 11.6 11.3 98 0.2 NNW 2 7 1 4 - - 0.0
22/05:00am 11.5 11.8 11.0 97 0.3 CALM 0 0 0 0 - - 0.0
22/04:37am 11.5 11.8 11.0 97 0.3 CALM 0 0 0 0 - - 0.0
22/04:30am 12.1 12.7 11.8 98 0.2 CALM 0 0 0 0 - - 0.0
22/04:26am 12.2 12.8 11.9 98 0.2 CALM 0 0 0 0 - - 0.0
22/04:00am 12.0 12.5 11.5 97 0.3 CALM 0 0 0 0 - - 0.0
22/03:37am 11.8 12.2 11.2 96 0.3 CALM 0 0 0 0 - - 0.0
22/03:30am 12.4 13.0 11.9 97 0.3 CALM 0 0 0 0 - - 0.0
22/03:17am 12.1 12.7 11.8 98 0.2 CALM 0 0 0 0 - - 0.0
22/03:00am 12.3 12.8 11.7 96 0.3 CALM 0 0 0 0 - - 0.0
22/02:39am 11.8 12.1 11.0 95 0.4 CALM 0 0 0 0 - - 0.0
22/02:30am 12.3 12.5 11.7 96 0.3 N 2 6 1 3 - - 0.0
22/02:24am 12.3 12.1 11.7 96 0.3 N 4 7 2 4 - - 0.0
22/02:23am 12.4 12.2 11.9 97 0.3 N 4 7 2 4 - - 0.0
22/02:04am 12.4 12.9 11.6 95 0.4 CALM 0 0 0 0 - - 0.0
22/02:00am 12.3 12.8 11.5 95 0.4 CALM 0 0 0 0 - - 0.0
22/01:52am 12.4 13.0 11.8 96 0.3 CALM 0 0 0 0 - - 0.0
22/01:33am 12.1 12.5 11.2 94 0.5 CALM 0 0 0 0 - - 0.0
22/01:30am 12.8 13.4 12.0 95 0.4 CALM 0 0 0 0 - - 0.0
22/01:00am 13.2 14.0 12.4 95 0.4 CALM 0 0 0 0 - - 0.0
22/12:30am 13.2 13.9 12.3 94 0.5 CALM 0 0 0 0 - - 0.0
22/12:00am 13.5 14.3 12.7 95 0.4 CALM 0 0 0 0 - - 0.0
 
Date/Time
EST
Tmp

°C
App
Tmp
°C
Dew
Point
°C
Rel
Hum
%
Delta-T

°C
Wind Press
QNH
hPa
Press
MSL
hPa
Rain
since
9 am
mm
Dir
 
Spd
km/h
Gust
km/h
Spd
kts
Gust
kts
21/11:30pm 13.2 13.9 12.1 93 0.6 CALM 0 0 0 0 - - 0.0
21/11:00pm 13.1 13.0 12.0 93 0.6 NNE 4 7 2 4 - - 0.0
21/10:30pm 13.0 13.5 11.6 91 0.7 CALM 0 0 0 0 - - 0.0
21/10:00pm 13.7 14.4 12.3 91 0.8 CALM 0 0 0 0 - - 0.0

Latest Capital City Observations: Canberra | Sydney | Melbourne | Brisbane | Adelaide | Perth | Hobart | Darwin

Other Formats:

Comma delimited format used in spreadsheet applications
http://www.bom.gov.au/fwo/IDN60901/IDN60901.94766.axf

JavaScript Object Notation format (JSON) in row-major order
http://www.bom.gov.au/fwo/IDN60901/IDN60901.94766.json